sensor_id;sensor_type;location;lat;lon;timestamp;temperature;humidity
40123;DHT22;25832;45.490;4.912;2023-05-24T00:01:42;16.10;99.90
40123;DHT22;25832;45.490;4.912;2023-05-24T00:04:08;16.00;99.90
40123;DHT22;25832;45.490;4.912;2023-05-24T00:06:35;16.10;99.90
40123;DHT22;25832;45.490;4.912;2023-05-24T00:09:02;16.10;99.90
40123;DHT22;25832;45.490;4.912;2023-05-24T00:11:28;16.10;99.90
40123;DHT22;25832;45.490;4.912;2023-05-24T00:13:53;16.10;99.90
40123;DHT22;25832;45.490;4.912;2023-05-24T00:16:19;16.10;99.90
40123;DHT22;25832;45.490;4.912;2023-05-24T00:18:45;16.10;99.90
40123;DHT22;25832;45.490;4.912;2023-05-24T00:21:12;16.10;99.90
40123;DHT22;25832;45.490;4.912;2023-05-24T00:23:38;16.10;99.90
40123;DHT22;25832;45.490;4.912;2023-05-24T00:26:04;16.10;99.90
40123;DHT22;25832;45.490;4.912;2023-05-24T00:28:30;16.00;99.90
40123;DHT22;25832;45.490;4.912;2023-05-24T00:30:56;16.00;99.90
40123;DHT22;25832;45.490;4.912;2023-05-24T00:33:22;16.00;99.90
40123;DHT22;25832;45.490;4.912;2023-05-24T00:35:49;16.00;99.90
40123;DHT22;25832;45.490;4.912;2023-05-24T00:38:18;16.00;99.90
40123;DHT22;25832;45.490;4.912;2023-05-24T00:40:44;16.00;99.90
40123;DHT22;25832;45.490;4.912;2023-05-24T00:43:10;16.00;99.90
40123;DHT22;25832;45.490;4.912;2023-05-24T00:45:35;16.00;99.90
40123;DHT22;25832;45.490;4.912;2023-05-24T00:48:01;15.90;99.90
40123;DHT22;25832;45.490;4.912;2023-05-24T00:50:28;15.90;99.90
40123;DHT22;25832;45.490;4.912;2023-05-24T00:52:55;15.90;99.90
40123;DHT22;25832;45.490;4.912;2023-05-24T00:55:23;15.90;99.90
40123;DHT22;25832;45.490;4.912;2023-05-24T00:57:50;15.90;99.90
40123;DHT22;25832;45.490;4.912;2023-05-24T01:00:16;15.80;99.90
40123;DHT22;25832;45.490;4.912;2023-05-24T01:02:42;15.80;99.90
40123;DHT22;25832;45.490;4.912;2023-05-24T01:05:08;15.80;99.90
40123;DHT22;25832;45.490;4.912;2023-05-24T01:16:09;15.60;99.90
40123;DHT22;25832;45.490;4.912;2023-05-24T01:18:46;15.60;99.90
40123;DHT22;25832;45.490;4.912;2023-05-24T01:24:12;15.50;99.90
40123;DHT22;25832;45.490;4.912;2023-05-24T01:29:28;15.40;99.90
40123;DHT22;25832;45.490;4.912;2023-05-24T01:31:53;15.40;99.90
40123;DHT22;25832;45.490;4.912;2023-05-24T01:34:19;15.30;99.90
40123;DHT22;25832;45.490;4.912;2023-05-24T01:36:45;15.30;99.90
40123;DHT22;25832;45.490;4.912;2023-05-24T01:39:11;15.30;99.90
40123;DHT22;25832;45.490;4.912;2023-05-24T01:41:48;15.30;99.90
40123;DHT22;25832;45.490;4.912;2023-05-24T01:44:36;15.30;99.90
40123;DHT22;25832;45.490;4.912;2023-05-24T01:49:53;15.30;99.90
40123;DHT22;25832;45.490;4.912;2023-05-24T01:52:24;15.20;99.90
40123;DHT22;25832;45.490;4.912;2023-05-24T01:54:52;15.20;99.90
40123;DHT22;25832;45.490;4.912;2023-05-24T01:57:21;15.20;99.90
40123;DHT22;25832;45.490;4.912;2023-05-24T01:59:48;15.20;99.90
40123;DHT22;25832;45.490;4.912;2023-05-24T02:02:14;15.20;99.90
40123;DHT22;25832;45.490;4.912;2023-05-24T02:04:40;15.10;99.90
40123;DHT22;25832;45.490;4.912;2023-05-24T02:07:06;15.10;99.90
40123;DHT22;25832;45.490;4.912;2023-05-24T02:09:32;15.10;99.90
40123;DHT22;25832;45.490;4.912;2023-05-24T02:11:57;15.10;99.90
40123;DHT22;25832;45.490;4.912;2023-05-24T02:14:23;15.10;99.90
40123;DHT22;25832;45.490;4.912;2023-05-24T02:16:49;15.00;99.90
40123;DHT22;25832;45.490;4.912;2023-05-24T02:19:15;15.10;99.90
40123;DHT22;25832;45.490;4.912;2023-05-24T02:21:44;15.10;99.90
40123;DHT22;25832;45.490;4.912;2023-05-24T02:24:09;15.00;99.90
40123;DHT22;25832;45.490;4.912;2023-05-24T02:26:39;15.00;99.90
40123;DHT22;25832;45.490;4.912;2023-05-24T02:29:05;15.00;99.90
40123;DHT22;25832;45.490;4.912;2023-05-24T02:31:31;15.00;99.90
40123;DHT22;25832;45.490;4.912;2023-05-24T02:33:57;14.90;99.90
40123;DHT22;25832;45.490;4.912;2023-05-24T02:36:23;14.90;99.90
40123;DHT22;25832;45.490;4.912;2023-05-24T02:38:52;14.90;99.90
40123;DHT22;25832;45.490;4.912;2023-05-24T02:41:18;14.80;99.90
40123;DHT22;25832;45.490;4.912;2023-05-24T02:43:44;14.80;99.90
40123;DHT22;25832;45.490;4.912;2023-05-24T02:46:10;14.80;99.90
40123;DHT22;25832;45.490;4.912;2023-05-24T02:48:36;14.80;99.90
40123;DHT22;25832;45.490;4.912;2023-05-24T02:51:02;14.80;99.90
40123;DHT22;25832;45.490;4.912;2023-05-24T02:53:28;14.70;99.90
40123;DHT22;25832;45.490;4.912;2023-05-24T02:55:54;14.70;99.90
40123;DHT22;25832;45.490;4.912;2023-05-24T02:58:20;14.60;99.90
40123;DHT22;25832;45.490;4.912;2023-05-24T03:00:45;14.60;99.90
40123;DHT22;25832;45.490;4.912;2023-05-24T03:03:11;14.70;99.90
40123;DHT22;25832;45.490;4.912;2023-05-24T03:05:37;14.60;99.90
40123;DHT22;25832;45.490;4.912;2023-05-24T03:08:02;14.60;99.90
40123;DHT22;25832;45.490;4.912;2023-05-24T03:10:28;14.60;99.90
40123;DHT22;25832;45.490;4.912;2023-05-24T03:12:54;14.60;99.90
40123;DHT22;25832;45.490;4.912;2023-05-24T03:15:20;14.60;99.90
40123;DHT22;25832;45.490;4.912;2023-05-24T03:17:45;14.60;99.90
40123;DHT22;25832;45.490;4.912;2023-05-24T03:20:11;14.60;99.90
40123;DHT22;25832;45.490;4.912;2023-05-24T03:22:37;14.60;99.90
40123;DHT22;25832;45.490;4.912;2023-05-24T03:25:03;14.60;99.90
40123;DHT22;25832;45.490;4.912;2023-05-24T03:27:29;14.60;99.90
40123;DHT22;25832;45.490;4.912;2023-05-24T03:29:55;14.60;99.90
40123;DHT22;25832;45.490;4.912;2023-05-24T03:32:20;14.60;99.90
40123;DHT22;25832;45.490;4.912;2023-05-24T03:34:46;14.60;99.90
40123;DHT22;25832;45.490;4.912;2023-05-24T03:37:12;14.50;99.90
40123;DHT22;25832;45.490;4.912;2023-05-24T03:39:37;14.60;99.90
40123;DHT22;25832;45.490;4.912;2023-05-24T03:42:03;14.50;99.90
40123;DHT22;25832;45.490;4.912;2023-05-24T03:44:29;14.50;99.90
40123;DHT22;25832;45.490;4.912;2023-05-24T03:46:54;14.50;99.90
40123;DHT22;25832;45.490;4.912;2023-05-24T03:49:20;14.50;99.90
40123;DHT22;25832;45.490;4.912;2023-05-24T03:51:46;14.50;99.90
40123;DHT22;25832;45.490;4.912;2023-05-24T03:54:11;14.50;99.90
40123;DHT22;25832;45.490;4.912;2023-05-24T03:56:37;14.50;99.90
40123;DHT22;25832;45.490;4.912;2023-05-24T03:59:03;14.50;99.90
40123;DHT22;25832;45.490;4.912;2023-05-24T04:01:29;14.50;99.90
40123;DHT22;25832;45.490;4.912;2023-05-24T04:03:58;14.50;99.90
40123;DHT22;25832;45.490;4.912;2023-05-24T04:06:26;14.50;99.90
40123;DHT22;25832;45.490;4.912;2023-05-24T04:08:57;14.50;99.90
40123;DHT22;25832;45.490;4.912;2023-05-24T04:11:23;14.50;99.90
40123;DHT22;25832;45.490;4.912;2023-05-24T04:13:53;14.50;99.90
40123;DHT22;25832;45.490;4.912;2023-05-24T04:16:23;14.40;99.90
40123;DHT22;25832;45.490;4.912;2023-05-24T04:18:50;14.40;99.90
40123;DHT22;25832;45.490;4.912;2023-05-24T04:21:16;14.40;99.90
40123;DHT22;25832;45.490;4.912;2023-05-24T04:23:42;14.40;99.90
40123;DHT22;25832;45.490;4.912;2023-05-24T04:26:07;14.40;99.90
40123;DHT22;25832;45.490;4.912;2023-05-24T04:28:35;14.50;99.90
40123;DHT22;25832;45.490;4.912;2023-05-24T04:31:03;14.50;99.90
40123;DHT22;25832;45.490;4.912;2023-05-24T04:33:31;14.50;99.90
40123;DHT22;25832;45.490;4.912;2023-05-24T04:35:57;14.50;99.90
40123;DHT22;25832;45.490;4.912;2023-05-24T04:38:26;14.50;99.90
40123;DHT22;25832;45.490;4.912;2023-05-24T04:40:57;14.50;99.90
40123;DHT22;25832;45.490;4.912;2023-05-24T04:43:26;14.50;99.90
40123;DHT22;25832;45.490;4.912;2023-05-24T04:45:53;14.50;99.90
40123;DHT22;25832;45.490;4.912;2023-05-24T04:48:20;14.40;99.90
40123;DHT22;25832;45.490;4.912;2023-05-24T04:50:55;14.50;99.90
40123;DHT22;25832;45.490;4.912;2023-05-24T04:53:21;14.50;99.90
40123;DHT22;25832;45.490;4.912;2023-05-24T04:55:48;14.50;99.90
40123;DHT22;25832;45.490;4.912;2023-05-24T04:58:14;14.60;99.90
40123;DHT22;25832;45.490;4.912;2023-05-24T05:00:41;14.60;99.90
40123;DHT22;25832;45.490;4.912;2023-05-24T05:03:07;14.60;99.90
40123;DHT22;25832;45.490;4.912;2023-05-24T05:05:33;14.50;99.90
40123;DHT22;25832;45.490;4.912;2023-05-24T05:07:59;14.50;99.90
40123;DHT22;25832;45.490;4.912;2023-05-24T05:10:25;14.50;99.90
40123;DHT22;25832;45.490;4.912;2023-05-24T05:12:51;14.50;99.90
40123;DHT22;25832;45.490;4.912;2023-05-24T05:15:17;14.50;99.90
40123;DHT22;25832;45.490;4.912;2023-05-24T05:17:43;14.50;99.90
40123;DHT22;25832;45.490;4.912;2023-05-24T05:20:08;14.50;99.90
40123;DHT22;25832;45.490;4.912;2023-05-24T05:22:34;14.50;99.90
40123;DHT22;25832;45.490;4.912;2023-05-24T05:25:00;14.50;99.90
40123;DHT22;25832;45.490;4.912;2023-05-24T05:27:26;14.50;99.90
40123;DHT22;25832;45.490;4.912;2023-05-24T05:29:51;14.50;99.90
40123;DHT22;25832;45.490;4.912;2023-05-24T05:32:17;14.50;99.90
40123;DHT22;25832;45.490;4.912;2023-05-24T05:34:43;14.50;99.90
40123;DHT22;25832;45.490;4.912;2023-05-24T05:37:09;14.50;99.90
40123;DHT22;25832;45.490;4.912;2023-05-24T05:39:35;14.60;99.90
40123;DHT22;25832;45.490;4.912;2023-05-24T05:42:00;14.60;99.90
40123;DHT22;25832;45.490;4.912;2023-05-24T05:44:26;14.60;99.90
40123;DHT22;25832;45.490;4.912;2023-05-24T05:46:52;14.60;99.90
40123;DHT22;25832;45.490;4.912;2023-05-24T05:49:18;14.70;99.90
40123;DHT22;25832;45.490;4.912;2023-05-24T05:51:44;14.70;99.90
40123;DHT22;25832;45.490;4.912;2023-05-24T05:54:11;14.70;99.90
40123;DHT22;25832;45.490;4.912;2023-05-24T05:56:43;14.70;99.90
40123;DHT22;25832;45.490;4.912;2023-05-24T05:59:15;14.70;99.90
40123;DHT22;25832;45.490;4.912;2023-05-24T06:01:41;14.70;99.90
40123;DHT22;25832;45.490;4.912;2023-05-24T06:04:08;14.70;99.90
40123;DHT22;25832;45.490;4.912;2023-05-24T06:06:34;14.70;99.90
40123;DHT22;25832;45.490;4.912;2023-05-24T06:09:00;14.80;99.90
40123;DHT22;25832;45.490;4.912;2023-05-24T06:11:26;14.70;99.90
40123;DHT22;25832;45.490;4.912;2023-05-24T06:13:52;14.80;99.90
40123;DHT22;25832;45.490;4.912;2023-05-24T06:16:18;14.70;99.90
40123;DHT22;25832;45.490;4.912;2023-05-24T06:18:46;14.70;99.90
40123;DHT22;25832;45.490;4.912;2023-05-24T06:21:14;14.80;99.90
40123;DHT22;25832;45.490;4.912;2023-05-24T06:23:41;14.80;99.90
40123;DHT22;25832;45.490;4.912;2023-05-24T06:26:07;14.80;99.90
40123;DHT22;25832;45.490;4.912;2023-05-24T06:28:37;14.80;99.90
40123;DHT22;25832;45.490;4.912;2023-05-24T06:31:03;14.80;99.90
40123;DHT22;25832;45.490;4.912;2023-05-24T06:33:30;14.80;99.90
40123;DHT22;25832;45.490;4.912;2023-05-24T06:35:56;14.90;99.90
40123;DHT22;25832;45.490;4.912;2023-05-24T06:38:22;14.90;99.90
40123;DHT22;25832;45.490;4.912;2023-05-24T06:40:48;14.90;99.90
40123;DHT22;25832;45.490;4.912;2023-05-24T06:43:14;14.90;99.90
40123;DHT22;25832;45.490;4.912;2023-05-24T06:45:40;14.90;99.90
40123;DHT22;25832;45.490;4.912;2023-05-24T06:48:06;14.90;99.90
40123;DHT22;25832;45.490;4.912;2023-05-24T06:50:32;14.80;99.90
40123;DHT22;25832;45.490;4.912;2023-05-24T06:52:57;14.80;99.90
40123;DHT22;25832;45.490;4.912;2023-05-24T06:55:23;14.70;99.90
40123;DHT22;25832;45.490;4.912;2023-05-24T06:57:48;14.80;99.90
40123;DHT22;25832;45.490;4.912;2023-05-24T07:00:14;14.80;99.90
40123;DHT22;25832;45.490;4.912;2023-05-24T07:02:40;14.80;99.90
40123;DHT22;25832;45.490;4.912;2023-05-24T07:05:07;14.80;99.90
40123;DHT22;25832;45.490;4.912;2023-05-24T07:07:40;14.80;99.90
40123;DHT22;25832;45.490;4.912;2023-05-24T07:10:07;14.80;99.90
40123;DHT22;25832;45.490;4.912;2023-05-24T07:12:33;14.80;99.90
40123;DHT22;25832;45.490;4.912;2023-05-24T07:14:59;14.80;99.90
40123;DHT22;25832;45.490;4.912;2023-05-24T07:17:24;14.80;99.90
40123;DHT22;25832;45.490;4.912;2023-05-24T07:19:50;14.80;99.90
40123;DHT22;25832;45.490;4.912;2023-05-24T07:22:16;14.80;99.90
40123;DHT22;25832;45.490;4.912;2023-05-24T07:24:42;14.80;99.90
40123;DHT22;25832;45.490;4.912;2023-05-24T07:27:08;14.90;99.90
40123;DHT22;25832;45.490;4.912;2023-05-24T07:29:34;14.90;99.90
40123;DHT22;25832;45.490;4.912;2023-05-24T07:32:00;15.00;99.90
40123;DHT22;25832;45.490;4.912;2023-05-24T07:34:26;15.00;99.90
40123;DHT22;25832;45.490;4.912;2023-05-24T07:36:55;15.00;99.90
40123;DHT22;25832;45.490;4.912;2023-05-24T07:39:23;15.10;99.90
40123;DHT22;25832;45.490;4.912;2023-05-24T07:41:49;15.10;99.90
40123;DHT22;25832;45.490;4.912;2023-05-24T07:44:15;15.10;99.90
40123;DHT22;25832;45.490;4.912;2023-05-24T07:46:41;15.20;99.90
40123;DHT22;25832;45.490;4.912;2023-05-24T07:49:07;15.20;99.90
40123;DHT22;25832;45.490;4.912;2023-05-24T07:51:32;15.20;99.90
40123;DHT22;25832;45.490;4.912;2023-05-24T07:53:58;15.20;99.90
40123;DHT22;25832;45.490;4.912;2023-05-24T07:56:24;15.20;99.90
40123;DHT22;25832;45.490;4.912;2023-05-24T07:58:50;15.20;99.90
40123;DHT22;25832;45.490;4.912;2023-05-24T08:01:16;15.20;99.90
40123;DHT22;25832;45.490;4.912;2023-05-24T08:03:45;15.30;99.90
40123;DHT22;25832;45.490;4.912;2023-05-24T08:06:11;15.30;99.90
40123;DHT22;25832;45.490;4.912;2023-05-24T08:08:37;15.40;99.90
40123;DHT22;25832;45.490;4.912;2023-05-24T08:11:03;15.50;99.90
40123;DHT22;25832;45.490;4.912;2023-05-24T08:13:29;15.60;99.90
40123;DHT22;25832;45.490;4.912;2023-05-24T08:15:55;15.60;99.90
40123;DHT22;25832;45.490;4.912;2023-05-24T08:18:22;15.70;99.90
40123;DHT22;25832;45.490;4.912;2023-05-24T08:20:48;15.80;99.90
40123;DHT22;25832;45.490;4.912;2023-05-24T08:23:14;15.90;99.90
40123;DHT22;25832;45.490;4.912;2023-05-24T08:25:39;15.80;99.90
40123;DHT22;25832;45.490;4.912;2023-05-24T08:28:05;15.90;99.90
40123;DHT22;25832;45.490;4.912;2023-05-24T08:30:31;16.00;99.90
40123;DHT22;25832;45.490;4.912;2023-05-24T08:32:56;16.10;99.90
40123;DHT22;25832;45.490;4.912;2023-05-24T08:35:22;16.30;99.90
40123;DHT22;25832;45.490;4.912;2023-05-24T08:37:48;16.40;99.90
40123;DHT22;25832;45.490;4.912;2023-05-24T08:40:14;16.70;99.90
40123;DHT22;25832;45.490;4.912;2023-05-24T08:42:40;16.80;99.90
40123;DHT22;25832;45.490;4.912;2023-05-24T08:45:13;16.90;99.90
40123;DHT22;25832;45.490;4.912;2023-05-24T08:47:40;17.10;99.90
40123;DHT22;25832;45.490;4.912;2023-05-24T08:50:06;17.10;99.90
40123;DHT22;25832;45.490;4.912;2023-05-24T08:52:33;17.10;99.90
40123;DHT22;25832;45.490;4.912;2023-05-24T08:54:59;17.00;99.90
40123;DHT22;25832;45.490;4.912;2023-05-24T08:57:32;17.00;99.90
40123;DHT22;25832;45.490;4.912;2023-05-24T09:00:13;17.00;99.90
40123;DHT22;25832;45.490;4.912;2023-05-24T09:02:40;17.00;99.90
40123;DHT22;25832;45.490;4.912;2023-05-24T09:05:11;17.10;99.90
40123;DHT22;25832;45.490;4.912;2023-05-24T09:07:37;17.20;99.90
40123;DHT22;25832;45.490;4.912;2023-05-24T09:10:07;17.20;99.90
40123;DHT22;25832;45.490;4.912;2023-05-24T09:12:33;17.10;99.90
40123;DHT22;25832;45.490;4.912;2023-05-24T09:15:01;17.10;99.90
40123;DHT22;25832;45.490;4.912;2023-05-24T09:17:28;17.20;99.90
40123;DHT22;25832;45.490;4.912;2023-05-24T09:19:54;17.40;99.90
40123;DHT22;25832;45.490;4.912;2023-05-24T09:22:22;17.50;99.90
40123;DHT22;25832;45.490;4.912;2023-05-24T09:24:51;17.70;99.90
40123;DHT22;25832;45.490;4.912;2023-05-24T09:27:18;17.80;99.90
40123;DHT22;25832;45.490;4.912;2023-05-24T09:29:48;17.80;99.90
40123;DHT22;25832;45.490;4.912;2023-05-24T09:32:14;17.90;99.90
40123;DHT22;25832;45.490;4.912;2023-05-24T09:34:41;17.90;99.90
40123;DHT22;25832;45.490;4.912;2023-05-24T09:37:15;17.90;99.90
40123;DHT22;25832;45.490;4.912;2023-05-24T09:39:43;17.90;99.90
40123;DHT22;25832;45.490;4.912;2023-05-24T09:42:16;18.00;99.90
40123;DHT22;25832;45.490;4.912;2023-05-24T09:44:49;18.10;99.90
40123;DHT22;25832;45.490;4.912;2023-05-24T09:47:30;18.10;99.90
40123;DHT22;25832;45.490;4.912;2023-05-24T09:49:56;18.20;99.90
40123;DHT22;25832;45.490;4.912;2023-05-24T09:52:21;18.40;99.90
40123;DHT22;25832;45.490;4.912;2023-05-24T09:54:47;18.50;99.90
40123;DHT22;25832;45.490;4.912;2023-05-24T09:57:16;18.70;99.90
40123;DHT22;25832;45.490;4.912;2023-05-24T09:59:42;18.80;99.90
40123;DHT22;25832;45.490;4.912;2023-05-24T10:02:10;18.80;99.90
40123;DHT22;25832;45.490;4.912;2023-05-24T10:04:37;18.90;99.90
40123;DHT22;25832;45.490;4.912;2023-05-24T10:07:04;19.00;99.90
40123;DHT22;25832;45.490;4.912;2023-05-24T10:09:30;19.10;99.90
40123;DHT22;25832;45.490;4.912;2023-05-24T10:12:05;19.10;99.90
40123;DHT22;25832;45.490;4.912;2023-05-24T10:14:35;19.10;99.90
40123;DHT22;25832;45.490;4.912;2023-05-24T10:17:05;19.20;99.90
40123;DHT22;25832;45.490;4.912;2023-05-24T10:19:32;19.30;99.90
40123;DHT22;25832;45.490;4.912;2023-05-24T10:22:00;19.20;99.90
40123;DHT22;25832;45.490;4.912;2023-05-24T10:24:34;19.20;99.90
40123;DHT22;25832;45.490;4.912;2023-05-24T10:27:02;19.00;99.90
40123;DHT22;25832;45.490;4.912;2023-05-24T10:29:35;19.00;99.90
40123;DHT22;25832;45.490;4.912;2023-05-24T10:32:07;19.00;99.90
40123;DHT22;25832;45.490;4.912;2023-05-24T10:34:33;19.00;99.90
40123;DHT22;25832;45.490;4.912;2023-05-24T10:37:01;19.10;99.90
40123;DHT22;25832;45.490;4.912;2023-05-24T10:39:27;19.10;99.90
40123;DHT22;25832;45.490;4.912;2023-05-24T10:41:55;19.10;99.90
40123;DHT22;25832;45.490;4.912;2023-05-24T10:44:21;19.20;99.90
40123;DHT22;25832;45.490;4.912;2023-05-24T10:47:12;19.40;99.90
40123;DHT22;25832;45.490;4.912;2023-05-24T10:49:52;19.60;99.90
40123;DHT22;25832;45.490;4.912;2023-05-24T10:52:19;19.60;99.90
40123;DHT22;25832;45.490;4.912;2023-05-24T10:55:08;19.60;99.90
40123;DHT22;25832;45.490;4.912;2023-05-24T10:57:35;19.50;99.90
40123;DHT22;25832;45.490;4.912;2023-05-24T11:02:48;19.30;99.90
40123;DHT22;25832;45.490;4.912;2023-05-24T11:05:14;19.40;99.90
40123;DHT22;25832;45.490;4.912;2023-05-24T11:07:41;19.40;99.90
40123;DHT22;25832;45.490;4.912;2023-05-24T11:10:17;19.40;99.90
40123;DHT22;25832;45.490;4.912;2023-05-24T11:12:59;19.30;99.90
40123;DHT22;25832;45.490;4.912;2023-05-24T11:15:26;19.40;99.90
40123;DHT22;25832;45.490;4.912;2023-05-24T11:20:36;19.80;99.90
40123;DHT22;25832;45.490;4.912;2023-05-24T11:23:03;19.90;99.90
40123;DHT22;25832;45.490;4.912;2023-05-24T11:25:29;20.00;99.90
40123;DHT22;25832;45.490;4.912;2023-05-24T11:27:58;20.20;99.90
40123;DHT22;25832;45.490;4.912;2023-05-24T11:30:25;20.30;99.20
40123;DHT22;25832;45.490;4.912;2023-05-24T11:32:51;20.20;99.40
40123;DHT22;25832;45.490;4.912;2023-05-24T11:35:20;20.00;99.90
40123;DHT22;25832;45.490;4.912;2023-05-24T11:37:47;19.80;99.90
40123;DHT22;25832;45.490;4.912;2023-05-24T11:40:13;19.50;99.90
40123;DHT22;25832;45.490;4.912;2023-05-24T11:42:40;19.50;99.90
40123;DHT22;25832;45.490;4.912;2023-05-24T11:45:07;19.60;99.90
40123;DHT22;25832;45.490;4.912;2023-05-24T11:47:36;19.70;99.90
40123;DHT22;25832;45.490;4.912;2023-05-24T11:50:02;19.90;99.90
40123;DHT22;25832;45.490;4.912;2023-05-24T11:52:29;20.10;99.90
40123;DHT22;25832;45.490;4.912;2023-05-24T11:54:55;20.30;99.80
40123;DHT22;25832;45.490;4.912;2023-05-24T11:57:28;20.50;98.70
40123;DHT22;25832;45.490;4.912;2023-05-24T11:59:54;20.80;99.60
40123;DHT22;25832;45.490;4.912;2023-05-24T12:02:22;21.00;99.20
40123;DHT22;25832;45.490;4.912;2023-05-24T12:04:48;21.10;99.30
40123;DHT22;25832;45.490;4.912;2023-05-24T12:07:14;21.10;99.60
40123;DHT22;25832;45.490;4.912;2023-05-24T12:09:40;21.10;98.80
40123;DHT22;25832;45.490;4.912;2023-05-24T12:12:06;21.10;98.00
40123;DHT22;25832;45.490;4.912;2023-05-24T12:14:33;21.00;98.40
40123;DHT22;25832;45.490;4.912;2023-05-24T12:16:59;21.00;97.70
40123;DHT22;25832;45.490;4.912;2023-05-24T12:19:30;21.00;98.80
40123;DHT22;25832;45.490;4.912;2023-05-24T12:21:58;21.20;99.70
40123;DHT22;25832;45.490;4.912;2023-05-24T12:24:25;21.40;97.70
40123;DHT22;25832;45.490;4.912;2023-05-24T12:26:51;21.50;98.20
40123;DHT22;25832;45.490;4.912;2023-05-24T12:29:18;21.60;98.80
40123;DHT22;25832;45.490;4.912;2023-05-24T12:31:46;21.80;96.70
40123;DHT22;25832;45.490;4.912;2023-05-24T12:34:13;22.00;98.10
40123;DHT22;25832;45.490;4.912;2023-05-24T12:36:40;22.00;97.20
40123;DHT22;25832;45.490;4.912;2023-05-24T12:41:52;21.70;97.30
40123;DHT22;25832;45.490;4.912;2023-05-24T12:44:26;21.50;98.70
40123;DHT22;25832;45.490;4.912;2023-05-24T12:46:56;21.50;97.60
40123;DHT22;25832;45.490;4.912;2023-05-24T12:49:22;21.40;96.90
40123;DHT22;25832;45.490;4.912;2023-05-24T12:51:49;21.30;97.30
40123;DHT22;25832;45.490;4.912;2023-05-24T12:54:17;21.30;98.10
40123;DHT22;25832;45.490;4.912;2023-05-24T12:56:43;21.30;97.60
40123;DHT22;25832;45.490;4.912;2023-05-24T12:59:09;21.10;96.60
40123;DHT22;25832;45.490;4.912;2023-05-24T13:01:35;21.10;97.40
40123;DHT22;25832;45.490;4.912;2023-05-24T13:04:01;21.10;97.50
40123;DHT22;25832;45.490;4.912;2023-05-24T13:06:26;21.10;98.10
40123;DHT22;25832;45.490;4.912;2023-05-24T13:08:52;21.00;97.50
40123;DHT22;25832;45.490;4.912;2023-05-24T13:11:18;21.10;98.20
40123;DHT22;25832;45.490;4.912;2023-05-24T13:13:43;21.20;96.70
40123;DHT22;25832;45.490;4.912;2023-05-24T13:16:10;21.20;96.90
40123;DHT22;25832;45.490;4.912;2023-05-24T13:18:36;21.20;96.30
40123;DHT22;25832;45.490;4.912;2023-05-24T13:21:03;21.20;97.10
40123;DHT22;25832;45.490;4.912;2023-05-24T13:23:33;21.20;97.20
40123;DHT22;25832;45.490;4.912;2023-05-24T13:26:01;21.30;96.80
40123;DHT22;25832;45.490;4.912;2023-05-24T13:28:28;21.40;98.00
40123;DHT22;25832;45.490;4.912;2023-05-24T13:30:53;21.30;97.80
40123;DHT22;25832;45.490;4.912;2023-05-24T13:33:19;21.20;98.40
40123;DHT22;25832;45.490;4.912;2023-05-24T13:35:45;21.20;98.80
40123;DHT22;25832;45.490;4.912;2023-05-24T13:38:10;21.30;98.00
40123;DHT22;25832;45.490;4.912;2023-05-24T13:40:38;21.40;97.90
40123;DHT22;25832;45.490;4.912;2023-05-24T13:43:03;21.40;97.40
40123;DHT22;25832;45.490;4.912;2023-05-24T13:45:29;21.10;98.50
40123;DHT22;25832;45.490;4.912;2023-05-24T13:47:57;21.00;99.20
40123;DHT22;25832;45.490;4.912;2023-05-24T13:50:29;21.00;97.60
40123;DHT22;25832;45.490;4.912;2023-05-24T13:52:56;21.20;97.70
40123;DHT22;25832;45.490;4.912;2023-05-24T13:55:21;21.30;96.50
40123;DHT22;25832;45.490;4.912;2023-05-24T13:57:47;21.40;96.80
40123;DHT22;25832;45.490;4.912;2023-05-24T14:00:13;21.30;96.50
40123;DHT22;25832;45.490;4.912;2023-05-24T14:02:39;21.20;96.40
40123;DHT22;25832;45.490;4.912;2023-05-24T14:05:05;21.10;97.30
40123;DHT22;25832;45.490;4.912;2023-05-24T14:07:30;21.00;96.70
40123;DHT22;25832;45.490;4.912;2023-05-24T14:09:56;21.00;98.20
40123;DHT22;25832;45.490;4.912;2023-05-24T14:12:21;21.00;98.10
40123;DHT22;25832;45.490;4.912;2023-05-24T14:14:47;21.20;97.60
40123;DHT22;25832;45.490;4.912;2023-05-24T14:17:13;21.30;95.50
40123;DHT22;25832;45.490;4.912;2023-05-24T14:19:38;21.40;95.80
40123;DHT22;25832;45.490;4.912;2023-05-24T14:22:04;21.30;97.20
40123;DHT22;25832;45.490;4.912;2023-05-24T14:24:30;21.40;98.00
40123;DHT22;25832;45.490;4.912;2023-05-24T14:26:55;21.40;97.50
40123;DHT22;25832;45.490;4.912;2023-05-24T14:29:21;21.20;97.10
40123;DHT22;25832;45.490;4.912;2023-05-24T14:31:46;21.00;98.40
40123;DHT22;25832;45.490;4.912;2023-05-24T14:34:12;20.90;97.80
40123;DHT22;25832;45.490;4.912;2023-05-24T14:36:38;21.00;96.10
40123;DHT22;25832;45.490;4.912;2023-05-24T14:39:06;21.00;96.80
40123;DHT22;25832;45.490;4.912;2023-05-24T14:41:32;21.00;96.90
40123;DHT22;25832;45.490;4.912;2023-05-24T14:43:58;21.20;97.30
40123;DHT22;25832;45.490;4.912;2023-05-24T14:46:24;21.20;96.50
40123;DHT22;25832;45.490;4.912;2023-05-24T14:48:49;21.00;96.60
40123;DHT22;25832;45.490;4.912;2023-05-24T14:51:16;20.60;96.90
40123;DHT22;25832;45.490;4.912;2023-05-24T14:53:42;20.60;97.00
40123;DHT22;25832;45.490;4.912;2023-05-24T14:56:09;20.60;96.70
40123;DHT22;25832;45.490;4.912;2023-05-24T14:58:35;20.60;96.50
40123;DHT22;25832;45.490;4.912;2023-05-24T15:01:01;20.60;97.20
40123;DHT22;25832;45.490;4.912;2023-05-24T15:03:27;20.60;96.30
40123;DHT22;25832;45.490;4.912;2023-05-24T15:05:52;20.60;96.50
40123;DHT22;25832;45.490;4.912;2023-05-24T15:08:18;20.70;96.20
40123;DHT22;25832;45.490;4.912;2023-05-24T15:10:44;20.80;95.80
40123;DHT22;25832;45.490;4.912;2023-05-24T15:13:11;20.70;95.40
40123;DHT22;25832;45.490;4.912;2023-05-24T15:15:37;20.60;95.50
40123;DHT22;25832;45.490;4.912;2023-05-24T15:18:03;20.60;96.20
40123;DHT22;25832;45.490;4.912;2023-05-24T15:20:28;20.60;95.60
40123;DHT22;25832;45.490;4.912;2023-05-24T15:22:54;20.70;97.10
40123;DHT22;25832;45.490;4.912;2023-05-24T15:25:20;20.90;95.70
40123;DHT22;25832;45.490;4.912;2023-05-24T15:27:47;21.00;96.80
40123;DHT22;25832;45.490;4.912;2023-05-24T15:30:12;21.10;96.50
40123;DHT22;25832;45.490;4.912;2023-05-24T15:32:39;21.10;96.30
40123;DHT22;25832;45.490;4.912;2023-05-24T15:35:05;20.90;94.70
40123;DHT22;25832;45.490;4.912;2023-05-24T15:37:31;20.80;94.90
40123;DHT22;25832;45.490;4.912;2023-05-24T15:39:56;20.80;95.50
40123;DHT22;25832;45.490;4.912;2023-05-24T15:42:22;20.70;95.00
40123;DHT22;25832;45.490;4.912;2023-05-24T15:44:49;20.70;94.70
40123;DHT22;25832;45.490;4.912;2023-05-24T15:47:15;20.60;94.70
40123;DHT22;25832;45.490;4.912;2023-05-24T15:49:41;20.80;95.10
40123;DHT22;25832;45.490;4.912;2023-05-24T15:52:06;21.00;95.70
40123;DHT22;25832;45.490;4.912;2023-05-24T15:54:32;21.10;94.20